createdAt,value
2024-01-15T00:01:33.999Z,-2.40
2024-01-15T00:04:03.785Z,-2.40
2024-01-15T00:06:30.934Z,-2.30
2024-01-15T00:08:59.763Z,-2.40
2024-01-15T00:11:28.428Z,-2.40
2024-01-15T00:13:55.608Z,-2.40
2024-01-15T00:16:24.119Z,-2.40
2024-01-15T00:18:52.703Z,-2.30
2024-01-15T00:21:21.210Z,-2.40
2024-01-15T00:23:49.312Z,-2.40
2024-01-15T00:26:17.336Z,-2.40
2024-01-15T00:28:44.392Z,-2.50
2024-01-15T00:31:13.641Z,-2.50
2024-01-15T00:33:42.477Z,-2.50
2024-01-15T00:36:12.442Z,-2.50
2024-01-15T00:38:41.903Z,-2.40
2024-01-15T00:41:11.261Z,-2.50
2024-01-15T00:43:38.214Z,-2.60
2024-01-15T00:46:07.233Z,-2.60
2024-01-15T00:48:35.125Z,-2.60
2024-01-15T00:51:03.862Z,-2.60
2024-01-15T00:53:32.695Z,-2.50
2024-01-15T00:56:01.101Z,-2.50
2024-01-15T00:58:30.298Z,-2.60
2024-01-15T01:00:58.233Z,-2.50
2024-01-15T01:03:25.808Z,-2.50
2024-01-15T01:05:53.587Z,-2.50
2024-01-15T01:08:21.945Z,-2.60
2024-01-15T01:10:51.566Z,-2.60
2024-01-15T01:13:18.552Z,-2.60
2024-01-15T01:15:48.501Z,-2.60
2024-01-15T01:18:15.655Z,-2.60
2024-01-15T01:20:44.170Z,-2.60
2024-01-15T01:23:13.340Z,-2.60
2024-01-15T01:25:42.369Z,-2.60
2024-01-15T01:28:09.448Z,-2.60
2024-01-15T01:30:39.296Z,-2.60
2024-01-15T01:33:06.474Z,-2.60
2024-01-15T01:35:34.504Z,-2.60
2024-01-15T01:38:01.673Z,-2.60
2024-01-15T01:40:31.560Z,-2.60
2024-01-15T01:42:59.843Z,-2.60
2024-01-15T01:45:29.658Z,-2.60
2024-01-15T01:47:56.702Z,-2.60
2024-01-15T01:50:25.209Z,-2.60
2024-01-15T01:52:52.738Z,-2.60
2024-01-15T01:55:23.033Z,-2.60
2024-01-15T01:57:50.363Z,-2.60
2024-01-15T02:00:20.493Z,-2.70
2024-01-15T02:02:47.503Z,-2.60
2024-01-15T02:05:15.654Z,-2.60
2024-01-15T02:07:45.826Z,-2.60
2024-01-15T02:10:12.895Z,-2.60
2024-01-15T02:12:42.383Z,-2.60
2024-01-15T02:15:15.958Z,-2.60
2024-01-15T02:18:00.429Z,-2.60
2024-01-15T02:20:28.990Z,-2.60
2024-01-15T02:23:02.767Z,-2.60
2024-01-15T02:25:38.592Z,-2.60
2024-01-15T02:28:05.854Z,-2.60
2024-01-15T02:30:33.414Z,-2.60
2024-01-15T02:33:02.705Z,-2.60
2024-01-15T02:35:33.166Z,-2.60
2024-01-15T02:38:02.536Z,-2.60
2024-01-15T02:40:32.701Z,-2.60
2024-01-15T02:43:01.710Z,-2.60
2024-01-15T02:45:29.173Z,-2.60
2024-01-15T02:47:59.290Z,-2.60
2024-01-15T02:50:28.218Z,-2.60
2024-01-15T02:52:55.283Z,-2.60
2024-01-15T02:55:26.901Z,-2.60
2024-01-15T02:57:58.175Z,-2.70
2024-01-15T03:00:25.481Z,-2.60
2024-01-15T03:02:54.298Z,-2.60
2024-01-15T03:05:21.815Z,-2.70
2024-01-15T03:07:51.410Z,-2.60
2024-01-15T03:10:20.809Z,-2.60
2024-01-15T03:12:47.854Z,-2.60
2024-01-15T03:15:21.236Z,-2.70
2024-01-15T03:17:52.147Z,-2.70
2024-01-15T03:20:20.178Z,-2.60
2024-01-15T03:22:49.582Z,-2.70
2024-01-15T03:25:20.457Z,-2.70
2024-01-15T03:27:50.791Z,-2.70
2024-01-15T03:30:21.759Z,-2.70
2024-01-15T03:32:53.677Z,-2.70
2024-01-15T03:35:25.804Z,-2.70
2024-01-15T03:37:55.604Z,-2.70
2024-01-15T03:40:24.367Z,-2.70
2024-01-15T03:42:53.445Z,-2.70
2024-01-15T03:45:20.530Z,-2.60
2024-01-15T03:47:48.354Z,-2.60
2024-01-15T03:50:16.361Z,-2.60
2024-01-15T03:52:44.408Z,-2.60
2024-01-15T03:55:11.265Z,-2.60
2024-01-15T03:57:39.834Z,-2.60
2024-01-15T04:00:11.018Z,-2.60
2024-01-15T04:02:39.758Z,-2.50
2024-01-15T04:05:06.988Z,-2.50
2024-01-15T04:07:35.277Z,-2.50
2024-01-15T04:10:02.467Z,-2.50
2024-01-15T04:12:30.257Z,-2.50
2024-01-15T04:14:57.157Z,-2.60
2024-01-15T04:17:24.321Z,-2.60
2024-01-15T04:19:53.162Z,-2.50
2024-01-15T04:22:20.530Z,-2.60
2024-01-15T04:24:48.278Z,-2.60
2024-01-15T04:27:15.342Z,-2.50
2024-01-15T04:29:45.827Z,-2.50
2024-01-15T04:32:14.432Z,-2.40
2024-01-15T04:34:44.947Z,-2.40
2024-01-15T04:37:12.090Z,-2.40
2024-01-15T04:39:41.368Z,-2.40
2024-01-15T04:42:09.556Z,-2.40
2024-01-15T04:44:36.757Z,-2.40
2024-01-15T04:47:06.928Z,-2.40
2024-01-15T04:49:35.121Z,-2.40
2024-01-15T04:52:06.194Z,-2.40
2024-01-15T04:54:34.721Z,-2.30
2024-01-15T04:57:04.770Z,-2.40
2024-01-15T04:59:32.205Z,-2.40
2024-01-15T05:02:01.629Z,-2.40
2024-01-15T05:04:28.625Z,-2.40
2024-01-15T05:06:56.363Z,-2.30
2024-01-15T05:09:23.892Z,-2.40
2024-01-15T05:11:50.841Z,-2.30
2024-01-15T05:14:17.734Z,-2.40
2024-01-15T05:16:49.459Z,-2.30
2024-01-15T05:19:17.233Z,-2.30
2024-01-15T05:21:48.266Z,-2.30
2024-01-15T05:24:15.236Z,-2.30
2024-01-15T05:26:45.378Z,-2.30
2024-01-15T05:29:14.957Z,-2.30
2024-01-15T05:31:45.184Z,-2.30
2024-01-15T05:34:14.580Z,-2.30
2024-01-15T05:36:41.532Z,-2.20
2024-01-15T05:39:08.627Z,-2.20
2024-01-15T05:41:36.590Z,-2.20
2024-01-15T05:44:05.937Z,-2.20
2024-01-15T05:46:34.522Z,-2.20
2024-01-15T05:49:02.981Z,-2.20
2024-01-15T05:51:30.101Z,-2.20
2024-01-15T05:53:57.371Z,-2.20
2024-01-15T05:56:25.667Z,-2.20
2024-01-15T05:58:55.863Z,-2.20
2024-01-15T06:01:23.251Z,-2.20
2024-01-15T06:03:51.682Z,-2.10
2024-01-15T06:06:21.714Z,-2.20
2024-01-15T06:08:50.248Z,-2.20
2024-01-15T06:11:21.400Z,-2.20
2024-01-15T06:13:49.386Z,-2.10
2024-01-15T06:16:20.624Z,-2.10
2024-01-15T06:18:49.961Z,-2.10
2024-01-15T06:21:17.505Z,-2.10
2024-01-15T06:23:44.846Z,-2.00
2024-01-15T06:26:16.709Z,-2.00
2024-01-15T06:28:47.681Z,-2.10
2024-01-15T06:31:16.430Z,-2.00
2024-01-15T06:33:46.411Z,-2.10
2024-01-15T06:36:14.239Z,-2.10
2024-01-15T06:38:41.332Z,-2.00
2024-01-15T06:41:10.939Z,-2.00
2024-01-15T06:43:39.123Z,-2.00
2024-01-15T06:46:08.091Z,-2.00
2024-01-15T06:48:39.027Z,-2.00
2024-01-15T06:51:06.120Z,-2.00
2024-01-15T06:53:33.293Z,-2.10
2024-01-15T06:56:06.084Z,-2.00
2024-01-15T06:58:32.968Z,-2.10
2024-01-15T07:01:01.259Z,-2.10
2024-01-15T07:03:29.366Z,-2.10
2024-01-15T07:05:56.656Z,-2.00
2024-01-15T07:08:24.671Z,-1.90
2024-01-15T07:10:52.704Z,-1.90
2024-01-15T07:13:21.555Z,-1.90
2024-01-15T07:15:48.882Z,-1.90
2024-01-15T07:18:16.014Z,-1.90
2024-01-15T07:20:43.000Z,-1.90
2024-01-15T07:23:09.885Z,-1.90
2024-01-15T07:25:38.225Z,-1.90
2024-01-15T07:28:05.426Z,-1.90
2024-01-15T07:30:32.424Z,-1.90
2024-01-15T07:33:04.438Z,-2.00
2024-01-15T07:35:32.323Z,-2.00
2024-01-15T07:38:03.014Z,-1.90
2024-01-15T07:40:30.439Z,-1.90
2024-01-15T07:42:59.866Z,-1.90
2024-01-15T07:45:29.695Z,-1.80
2024-01-15T07:48:00.872Z,-1.80
2024-01-15T07:50:29.501Z,-1.80
2024-01-15T07:52:56.968Z,-1.80
2024-01-15T07:55:23.947Z,-1.70
2024-01-15T07:57:59.021Z,-1.70
2024-01-15T08:00:33.990Z,-1.60
2024-01-15T08:03:05.060Z,-1.60
2024-01-15T08:05:38.187Z,-1.70
2024-01-15T08:08:05.327Z,-1.70
2024-01-15T08:10:32.342Z,-1.70
2024-01-15T08:13:01.551Z,-1.60
2024-01-15T08:15:31.413Z,-1.60
2024-01-15T08:17:59.859Z,-1.60
2024-01-15T08:20:27.778Z,-1.60
2024-01-15T08:23:02.621Z,-1.60
2024-01-15T08:25:31.577Z,-1.60
2024-01-15T08:28:01.036Z,-1.60
2024-01-15T08:30:29.551Z,-1.60
2024-01-15T08:32:58.430Z,-1.60
2024-01-15T08:35:31.830Z,-1.50
2024-01-15T08:38:02.093Z,-1.50
2024-01-15T08:40:30.448Z,-1.50
2024-01-15T08:42:57.371Z,-1.40
2024-01-15T08:45:27.844Z,-1.50
2024-01-15T08:47:58.879Z,-1.50
2024-01-15T08:50:26.382Z,-1.50
2024-01-15T08:52:54.629Z,-1.40
2024-01-15T08:55:24.157Z,-1.40
2024-01-15T08:57:51.306Z,-1.40
2024-01-15T09:00:19.482Z,-1.40
2024-01-15T09:02:46.773Z,-1.40
2024-01-15T09:05:15.424Z,-1.40
2024-01-15T09:07:42.821Z,-1.40
2024-01-15T09:10:10.762Z,-1.40
2024-01-15T09:12:39.536Z,-1.30
2024-01-15T09:15:06.716Z,-1.30
2024-01-15T09:17:34.020Z,-1.40
2024-01-15T09:20:02.114Z,-1.40
2024-01-15T09:22:29.331Z,-1.30
2024-01-15T09:24:57.845Z,-1.20
2024-01-15T09:27:30.145Z,-1.20
2024-01-15T09:29:58.246Z,-1.20
2024-01-15T09:32:25.284Z,-1.30
2024-01-15T09:34:52.741Z,-1.30
2024-01-15T09:37:32.357Z,-1.30
2024-01-15T09:40:10.540Z,-1.30
2024-01-15T09:42:39.083Z,-1.30
2024-01-15T09:45:08.500Z,-1.30
2024-01-15T09:47:35.440Z,-1.20
2024-01-15T09:50:05.890Z,-1.20
2024-01-15T09:52:32.816Z,-1.10
2024-01-15T09:55:01.220Z,-1.20
2024-01-15T09:57:30.286Z,-1.10
2024-01-15T09:59:57.321Z,-1.10
2024-01-15T10:02:24.511Z,-1.20
2024-01-15T10:04:54.615Z,-1.20
2024-01-15T10:07:24.698Z,-1.10
2024-01-15T10:09:54.770Z,-1.10
2024-01-15T10:12:25.746Z,-1.20
2024-01-15T10:14:55.634Z,-1.20
2024-01-15T10:17:22.609Z,-1.20
2024-01-15T10:19:50.956Z,-1.10
2024-01-15T10:22:27.579Z,-1.00
2024-01-15T10:24:55.482Z,-1.00
2024-01-15T10:27:26.734Z,-1.00
2024-01-15T10:29:56.575Z,-1.00
2024-01-15T10:32:28.571Z,-1.00
2024-01-15T10:34:56.709Z,-1.00
2024-01-15T10:37:26.832Z,-0.90
2024-01-15T10:39:55.578Z,-0.90
2024-01-15T10:42:22.628Z,-0.90
2024-01-15T10:44:49.605Z,-0.90
2024-01-15T10:47:16.527Z,-0.90
2024-01-15T10:49:43.557Z,-0.90
2024-01-15T10:52:10.934Z,-0.90
2024-01-15T10:54:38.003Z,-1.00
2024-01-15T10:57:05.438Z,-0.90
2024-01-15T10:59:32.736Z,-0.90
2024-01-15T11:02:01.520Z,-0.80
2024-01-15T11:04:30.283Z,-0.90
2024-01-15T11:07:00.661Z,-0.90
2024-01-15T11:09:27.688Z,-0.80
2024-01-15T11:12:14.834Z,-0.80
2024-01-15T11:14:45.358Z,-0.60
2024-01-15T11:17:14.570Z,-0.40
2024-01-15T11:19:45.457Z,-0.40
2024-01-15T11:22:33.927Z,-0.40
2024-01-15T11:25:14.660Z,-0.40
2024-01-15T11:27:55.293Z,-0.50
2024-01-15T11:30:27.384Z,-0.50
2024-01-15T11:32:55.253Z,-0.60
2024-01-15T11:35:29.046Z,-0.50
2024-01-15T11:37:56.638Z,-0.40
2024-01-15T11:40:37.308Z,-0.50
2024-01-15T11:43:05.026Z,-0.40
2024-01-15T11:45:35.414Z,-0.30
2024-01-15T11:48:13.084Z,-0.30
2024-01-15T11:50:44.359Z,-0.30
2024-01-15T11:53:17.009Z,-0.20
2024-01-15T11:55:48.078Z,-0.20
2024-01-15T11:58:16.607Z,0.00
2024-01-15T12:00:47.589Z,-0.10
2024-01-15T12:03:16.542Z,0.00
2024-01-15T12:05:43.725Z,0.00
2024-01-15T12:08:13.882Z,0.00
2024-01-15T12:10:43.115Z,0.00
2024-01-15T12:13:10.985Z,0.00
2024-01-15T12:15:38.055Z,-0.10
2024-01-15T12:18:05.445Z,0.00
2024-01-15T12:20:32.622Z,-0.10
2024-01-15T12:23:02.749Z,-0.10
2024-01-15T12:25:32.322Z,-0.20
2024-01-15T12:27:59.960Z,-0.20
2024-01-15T12:30:28.852Z,-0.30
2024-01-15T12:32:57.109Z,-0.30
2024-01-15T12:35:25.161Z,-0.30
2024-01-15T12:37:54.445Z,-0.20
2024-01-15T12:40:23.507Z,-0.20
2024-01-15T12:42:52.806Z,-0.20
2024-01-15T12:45:19.810Z,-0.20
2024-01-15T12:47:50.282Z,-0.30
2024-01-15T12:50:21.237Z,-0.20
2024-01-15T12:52:51.394Z,-0.20
2024-01-15T12:55:18.365Z,-0.20
2024-01-15T12:57:47.401Z,-0.30
2024-01-15T13:00:18.538Z,-0.20
2024-01-15T13:02:45.588Z,-0.20
2024-01-15T13:05:15.163Z,-0.10
2024-01-15T13:07:44.928Z,-0.10
2024-01-15T13:10:14.295Z,-0.10
2024-01-15T13:12:43.031Z,-0.10
2024-01-15T13:15:14.921Z,0.00
2024-01-15T13:17:43.246Z,0.10
2024-01-15T13:20:12.837Z,0.00
2024-01-15T13:22:44.058Z,0.10
2024-01-15T13:25:13.547Z,0.10
2024-01-15T13:27:41.808Z,0.10
2024-01-15T13:30:12.279Z,0.10
2024-01-15T13:32:39.342Z,0.20
2024-01-15T13:35:11.317Z,0.20
2024-01-15T13:37:40.083Z,0.10
2024-01-15T13:40:09.578Z,0.20
2024-01-15T13:42:41.152Z,0.20
2024-01-15T13:45:09.903Z,0.20
2024-01-15T13:47:37.218Z,0.20
2024-01-15T13:50:07.648Z,0.20
2024-01-15T13:52:35.798Z,0.30
2024-01-15T13:55:04.105Z,0.30
2024-01-15T13:57:31.050Z,0.30
2024-01-15T13:59:59.506Z,0.30
2024-01-15T14:02:29.670Z,0.30
2024-01-15T14:04:58.455Z,0.30
2024-01-15T14:07:26.011Z,0.40
2024-01-15T14:09:54.115Z,0.40
2024-01-15T14:12:21.416Z,0.40
2024-01-15T14:14:49.556Z,0.40
2024-01-15T14:17:16.468Z,0.60
2024-01-15T14:19:44.564Z,0.70
2024-01-15T14:22:12.548Z,0.80
2024-01-15T14:24:40.678Z,1.10
2024-01-15T14:27:08.865Z,1.30
2024-01-15T14:29:37.670Z,1.10
2024-01-15T14:32:06.396Z,0.80
2024-01-15T14:34:36.449Z,0.80
2024-01-15T14:37:06.031Z,0.70
2024-01-15T14:39:38.957Z,0.70
2024-01-15T14:42:08.911Z,0.70
2024-01-15T14:44:36.884Z,0.70
2024-01-15T14:47:05.177Z,0.70
2024-01-15T14:49:38.030Z,0.70
2024-01-15T14:52:06.558Z,0.80
2024-01-15T14:54:34.031Z,0.80
2024-01-15T14:57:02.332Z,0.70
2024-01-15T14:59:31.702Z,0.80
2024-01-15T15:01:59.838Z,0.80
2024-01-15T15:04:26.851Z,0.80
2024-01-15T15:06:54.301Z,0.90
2024-01-15T15:09:21.716Z,0.80
2024-01-15T15:11:51.169Z,0.90
2024-01-15T15:14:18.982Z,0.90
2024-01-15T15:16:50.726Z,0.90
2024-01-15T15:19:19.244Z,0.80
2024-01-15T15:21:46.527Z,0.80
2024-01-15T15:24:14.827Z,1.00
2024-01-15T15:26:42.745Z,0.90
2024-01-15T15:29:13.106Z,0.90
2024-01-15T15:31:42.828Z,0.90
2024-01-15T15:34:10.045Z,1.00
2024-01-15T15:36:37.833Z,1.00
2024-01-15T15:39:04.948Z,1.00
2024-01-15T15:41:34.450Z,0.90
2024-01-15T15:44:01.429Z,1.00
2024-01-15T15:46:28.771Z,1.00
2024-01-15T15:48:56.867Z,0.90
2024-01-15T15:51:24.166Z,0.90
2024-01-15T15:53:53.085Z,0.90
2024-01-15T15:56:20.476Z,0.90
2024-01-15T15:58:49.855Z,0.90
2024-01-15T16:01:18.081Z,0.90
2024-01-15T16:03:45.053Z,0.90
2024-01-15T16:06:12.538Z,1.00
2024-01-15T16:08:39.499Z,0.90
2024-01-15T16:11:06.409Z,0.90
2024-01-15T16:13:33.478Z,1.00
2024-01-15T16:23:09.221Z,1.00
2024-01-15T16:23:22.292Z,1.00
2024-01-15T16:23:37.207Z,1.00
2024-01-15T16:24:33.780Z,1.00
2024-01-15T16:29:42.296Z,1.00
2024-01-15T16:32:09.975Z,0.80
2024-01-15T16:34:43.820Z,0.90
2024-01-15T16:37:11.767Z,0.90
2024-01-15T16:39:40.594Z,0.90
2024-01-15T16:42:10.187Z,0.90
2024-01-15T16:44:39.640Z,0.90
2024-01-15T16:47:08.824Z,0.80
2024-01-15T16:49:38.278Z,0.80
2024-01-15T16:52:08.616Z,0.80
2024-01-15T16:54:36.340Z,0.80
2024-01-15T16:57:04.338Z,0.80
2024-01-15T16:59:32.107Z,0.80
2024-01-15T17:01:59.427Z,0.80
2024-01-15T17:04:26.566Z,0.80
2024-01-15T17:06:53.953Z,0.90
2024-01-15T17:09:22.190Z,0.90
2024-01-15T17:11:49.763Z,0.90
2024-01-15T17:14:18.593Z,0.80
2024-01-15T17:16:47.695Z,0.80
2024-01-15T17:19:16.229Z,0.80
2024-01-15T17:21:46.239Z,0.80
2024-01-15T17:24:14.810Z,0.80
2024-01-15T17:26:42.910Z,0.80
2024-01-15T17:29:10.134Z,0.80
2024-01-15T17:31:37.752Z,0.80
2024-01-15T17:34:05.652Z,0.80
2024-01-15T17:36:34.111Z,0.70
2024-01-15T17:39:08.969Z,0.70
2024-01-15T17:41:35.992Z,0.60
2024-01-15T17:44:03.526Z,0.60
2024-01-15T17:46:32.679Z,0.50
2024-01-15T17:49:04.664Z,0.60
2024-01-15T17:51:33.246Z,0.50
2024-01-15T17:54:00.263Z,0.50
2024-01-15T17:56:28.322Z,0.50
2024-01-15T17:58:56.457Z,0.60
2024-01-15T18:01:23.863Z,0.60
2024-01-15T18:03:51.592Z,0.60
2024-01-15T18:06:19.034Z,0.60
2024-01-15T18:08:47.008Z,0.60
2024-01-15T18:11:20.363Z,0.50
2024-01-15T18:13:47.362Z,0.40
2024-01-15T18:16:16.329Z,0.50
2024-01-15T18:18:46.786Z,0.50
2024-01-15T18:21:15.972Z,0.40
2024-01-15T18:23:42.853Z,0.50
2024-01-15T18:26:12.254Z,0.40
2024-01-15T18:28:40.114Z,0.30
2024-01-15T18:31:08.418Z,0.40
2024-01-15T18:33:38.157Z,0.30
2024-01-15T18:36:08.105Z,0.30
2024-01-15T18:38:35.095Z,0.20
2024-01-15T18:41:04.015Z,0.20
2024-01-15T18:43:31.881Z,0.30
2024-01-15T18:45:59.370Z,0.30
2024-01-15T18:48:26.264Z,0.30
2024-01-15T18:50:56.613Z,0.20
2024-01-15T18:53:23.764Z,0.10
2024-01-15T18:55:51.679Z,0.00
2024-01-15T18:58:18.542Z,0.00
2024-01-15T19:00:49.819Z,0.00
2024-01-15T19:03:16.770Z,0.00
2024-01-15T19:05:47.695Z,0.10
2024-01-15T19:08:17.624Z,0.00
2024-01-15T19:10:44.768Z,0.10
2024-01-15T19:13:13.585Z,0.00
2024-01-15T19:15:40.843Z,0.00
2024-01-15T19:18:07.977Z,0.00
2024-01-15T19:20:36.690Z,0.00
2024-01-15T19:23:05.910Z,-0.10
2024-01-15T19:25:33.587Z,-0.20
2024-01-15T19:28:05.395Z,-0.20
2024-01-15T19:30:35.391Z,-0.20
2024-01-15T19:33:02.398Z,0.00
2024-01-15T19:35:30.851Z,0.10
2024-01-15T19:38:01.022Z,0.20
2024-01-15T19:40:29.785Z,0.20
2024-01-15T19:42:59.673Z,0.10
2024-01-15T19:45:27.452Z,0.10
2024-01-15T19:47:54.956Z,0.00
2024-01-15T19:50:21.990Z,0.00
2024-01-15T19:52:49.068Z,0.10
2024-01-15T19:55:15.927Z,0.20
2024-01-15T19:57:43.637Z,0.20
2024-01-15T20:00:15.295Z,0.30
2024-01-15T20:02:43.394Z,0.20
2024-01-15T20:05:11.508Z,0.20
2024-01-15T20:07:38.813Z,0.00
2024-01-15T20:10:08.183Z,0.00
2024-01-15T20:12:35.569Z,0.00
2024-01-15T20:15:02.451Z,0.10
2024-01-15T20:17:30.041Z,0.10
2024-01-15T20:19:58.148Z,0.00
2024-01-15T20:22:26.649Z,0.00
2024-01-15T20:24:53.500Z,-0.10
2024-01-15T20:27:21.366Z,-0.10
2024-01-15T20:29:50.555Z,-0.10
2024-01-15T20:32:21.726Z,-0.10
2024-01-15T20:34:48.885Z,-0.10
2024-01-15T20:37:17.097Z,-0.10
2024-01-15T20:39:46.155Z,-0.20
2024-01-15T20:42:15.525Z,-0.20
2024-01-15T20:44:42.732Z,-0.10
2024-01-15T20:47:12.083Z,-0.10
2024-01-15T20:49:39.369Z,0.00
2024-01-15T20:52:06.700Z,0.10
2024-01-15T20:54:33.597Z,0.10
2024-01-15T20:57:03.283Z,0.10
2024-01-15T20:59:31.037Z,0.10
2024-01-15T21:01:58.039Z,0.10
2024-01-15T21:04:24.909Z,0.10
2024-01-15T21:06:52.776Z,0.20
2024-01-15T21:09:19.651Z,0.10
2024-01-15T21:11:47.086Z,0.10
2024-01-15T21:14:19.660Z,0.10
2024-01-15T21:16:48.428Z,0.20
2024-01-15T21:19:15.364Z,0.20
2024-01-15T21:21:44.913Z,0.20
2024-01-15T21:24:12.082Z,0.30
2024-01-15T21:26:39.361Z,0.20
2024-01-15T21:29:06.384Z,0.30
2024-01-15T21:31:38.558Z,0.30
2024-01-15T21:34:06.362Z,0.30
2024-01-15T21:36:36.518Z,0.30
2024-01-15T21:39:04.716Z,0.20
2024-01-15T21:41:34.768Z,0.10
2024-01-15T21:44:07.679Z,0.10
2024-01-15T21:46:38.188Z,0.20
2024-01-15T21:49:06.119Z,0.10
2024-01-15T21:51:36.939Z,0.10
2024-01-15T21:54:04.997Z,0.20
2024-01-15T21:56:33.962Z,0.20
2024-01-15T21:59:02.017Z,0.30
2024-01-15T22:01:29.794Z,0.30
2024-01-15T22:03:57.067Z,0.30
2024-01-15T22:06:25.773Z,0.30
2024-01-15T22:08:53.186Z,0.40
2024-01-15T22:11:20.778Z,0.40
2024-01-15T22:13:47.671Z,0.40
2024-01-15T22:16:15.322Z,0.40
2024-01-15T22:18:43.370Z,0.40
2024-01-15T22:21:10.341Z,0.40
2024-01-15T22:23:39.612Z,0.40
2024-01-15T22:26:10.180Z,0.50
2024-01-15T22:28:38.997Z,0.50
2024-01-15T22:31:09.249Z,0.50
2024-01-15T22:33:36.340Z,0.50
2024-01-15T22:36:04.438Z,0.50
2024-01-15T22:38:33.803Z,0.50
2024-01-15T22:41:02.984Z,0.50
2024-01-15T22:43:32.580Z,0.50
2024-01-15T22:46:00.733Z,0.50
2024-01-15T22:48:29.276Z,0.50
2024-01-15T22:50:56.258Z,0.60
2024-01-15T22:53:23.679Z,0.60
2024-01-15T22:55:53.490Z,0.60
2024-01-15T22:58:20.402Z,0.60
2024-01-15T23:00:48.157Z,0.60
2024-01-15T23:03:15.755Z,0.60
2024-01-15T23:05:43.831Z,0.60
2024-01-15T23:08:11.344Z,0.60
2024-01-15T23:10:38.366Z,0.60
2024-01-15T23:13:05.780Z,0.60
2024-01-15T23:15:33.863Z,0.60
2024-01-15T23:18:01.145Z,0.60
2024-01-15T23:20:28.179Z,0.50
2024-01-15T23:22:56.358Z,0.60
2024-01-15T23:25:26.308Z,0.60
2024-01-15T23:27:56.464Z,0.60
2024-01-15T23:30:23.403Z,0.50
2024-01-15T23:32:53.229Z,0.60
2024-01-15T23:35:20.792Z,0.60
2024-01-15T23:37:48.576Z,0.50
2024-01-15T23:40:15.472Z,0.50
2024-01-15T23:42:44.437Z,0.50
2024-01-15T23:45:12.612Z,0.60
2024-01-15T23:47:40.478Z,0.60
2024-01-15T23:50:08.818Z,0.50
2024-01-15T23:52:35.729Z,0.50
2024-01-15T23:55:02.591Z,0.50
2024-01-15T23:57:31.425Z,0.50
